createdAt,value
2023-02-13T00:00:34.345Z,37.20
2023-02-13T00:03:42.240Z,37.20
2023-02-13T00:06:49.956Z,37.20
2023-02-13T00:09:57.978Z,37.20
2023-02-13T00:13:05.898Z,37.20
2023-02-13T00:16:15.210Z,37.20
2023-02-13T00:19:23.472Z,37.20
2023-02-13T00:22:31.657Z,37.20
2023-02-13T00:25:40.149Z,37.20
2023-02-13T00:28:48.286Z,37.20
2023-02-13T00:31:57.911Z,37.20
2023-02-13T00:35:06.284Z,37.20
2023-02-13T00:38:14.124Z,37.20
2023-02-13T00:41:22.244Z,37.20
2023-02-13T00:44:31.390Z,37.80
2023-02-13T00:47:40.868Z,37.20
2023-02-13T00:50:49.038Z,37.20
2023-02-13T00:53:57.111Z,37.20
2023-02-13T00:57:05.217Z,37.20
2023-02-13T01:00:14.574Z,37.20
2023-02-13T01:03:24.526Z,37.20
2023-02-13T01:06:32.307Z,37.20
2023-02-13T01:09:41.445Z,37.20
2023-02-13T01:12:49.552Z,37.20
2023-02-13T01:15:57.589Z,37.20
2023-02-13T01:19:08.428Z,37.20
2023-02-13T01:22:16.448Z,37.20
2023-02-13T01:25:24.430Z,37.20
2023-02-13T01:28:32.628Z,37.20
2023-02-13T01:31:40.649Z,37.20
2023-02-13T01:34:49.956Z,37.20
2023-02-13T01:37:58.064Z,37.20
2023-02-13T01:41:06.406Z,37.20
2023-02-13T01:44:46.942Z,37.20
2023-02-13T01:47:57.408Z,37.20
2023-02-13T01:51:08.462Z,37.20
2023-02-13T01:54:17.928Z,37.80
2023-02-13T01:57:27.621Z,37.20
2023-02-13T02:00:36.843Z,37.80
2023-02-13T02:03:48.362Z,37.20
2023-02-13T02:06:59.274Z,37.20
2023-02-13T02:10:15.041Z,37.20
2023-02-13T02:13:23.175Z,37.20
2023-02-13T02:16:33.075Z,37.20
2023-02-13T02:19:44.720Z,37.20
2023-02-13T02:23:24.283Z,37.20
2023-02-13T02:27:09.969Z,37.20
2023-02-13T02:30:38.787Z,37.20
2023-02-13T02:33:54.619Z,37.20
2023-02-13T02:37:14.784Z,37.20
2023-02-13T02:40:27.076Z,37.10
2023-02-13T02:43:46.536Z,37.20
2023-02-13T02:47:16.136Z,37.10
2023-02-13T02:50:34.354Z,37.10
2023-02-13T02:53:43.836Z,37.00
2023-02-13T02:56:52.112Z,37.00
2023-02-13T03:00:25.787Z,37.10
2023-02-13T03:03:51.808Z,37.00
2023-02-13T03:07:01.636Z,37.10
2023-02-13T03:10:30.671Z,37.00
2023-02-13T03:13:41.363Z,37.00
2023-02-13T03:17:06.915Z,37.00
2023-02-13T03:20:35.679Z,37.00
2023-02-13T03:23:48.433Z,37.00
2023-02-13T03:26:57.745Z,37.00
2023-02-13T03:30:08.490Z,37.00
2023-02-13T03:33:24.311Z,37.00
2023-02-13T03:36:54.344Z,37.00
2023-02-13T03:40:05.879Z,37.00
2023-02-13T03:43:14.600Z,37.00
2023-02-13T03:46:22.583Z,37.00
2023-02-13T03:49:49.878Z,37.00
2023-02-13T03:52:59.516Z,37.00
2023-02-13T03:56:26.946Z,37.00
2023-02-13T03:59:36.022Z,36.90
2023-02-13T04:02:49.983Z,37.00
2023-02-13T04:06:05.612Z,37.00
2023-02-13T04:09:13.705Z,37.00
2023-02-13T04:12:24.530Z,37.00
2023-02-13T04:15:34.623Z,37.00
2023-02-13T04:18:42.434Z,37.00
2023-02-13T04:21:51.139Z,37.00
2023-02-13T04:24:59.394Z,37.00
2023-02-13T04:28:08.930Z,37.00
2023-02-13T04:31:16.996Z,37.00
2023-02-13T04:34:25.210Z,37.00
2023-02-13T04:37:33.247Z,37.00
2023-02-13T04:40:41.328Z,37.00
2023-02-13T04:43:52.390Z,37.00
2023-02-13T04:47:00.185Z,37.00
2023-02-13T04:50:08.865Z,37.00
2023-02-13T04:53:16.576Z,37.00
2023-02-13T04:56:24.473Z,37.00
2023-02-13T04:59:33.853Z,37.00
2023-02-13T05:02:41.725Z,37.00
2023-02-13T05:05:49.864Z,37.00
2023-02-13T05:08:57.611Z,37.00
2023-02-13T05:12:06.039Z,37.00
2023-02-13T05:15:15.746Z,37.10
2023-02-13T05:18:23.884Z,37.20
2023-02-13T05:21:49.437Z,37.40
2023-02-13T05:24:57.266Z,37.50
2023-02-13T05:28:05.269Z,37.70
2023-02-13T05:31:14.915Z,37.70
2023-02-13T05:34:23.255Z,37.70
2023-02-13T05:37:31.140Z,37.80
2023-02-13T05:40:39.178Z,37.80
2023-02-13T05:43:47.330Z,37.80
2023-02-13T05:46:56.677Z,38.40
2023-02-13T05:50:04.638Z,37.80
2023-02-13T05:53:12.689Z,37.90
2023-02-13T05:56:20.833Z,37.90
2023-02-13T05:59:28.768Z,37.90
2023-02-13T06:02:37.935Z,37.90
2023-02-13T06:05:45.857Z,37.90
2023-02-13T06:08:54.021Z,37.90
2023-02-13T06:12:02.153Z,37.90
2023-02-13T06:15:10.783Z,37.90
2023-02-13T06:18:20.250Z,37.90
2023-02-13T06:21:28.564Z,37.90
2023-02-13T06:24:36.508Z,37.90
2023-02-13T06:27:44.442Z,37.90
2023-02-13T06:30:52.515Z,37.90
2023-02-13T06:34:01.950Z,37.90
2023-02-13T06:37:09.786Z,37.90
2023-02-13T06:40:17.912Z,37.90
2023-02-13T06:43:25.887Z,37.90
2023-02-13T06:46:34.017Z,37.90
2023-02-13T06:49:43.132Z,37.80
2023-02-13T06:52:52.283Z,37.90
2023-02-13T06:56:00.578Z,37.90
2023-02-13T06:59:08.587Z,38.40
2023-02-13T07:02:16.871Z,37.90
2023-02-13T07:05:26.318Z,37.90
2023-02-13T07:08:34.317Z,37.90
2023-02-13T07:11:42.293Z,37.90
2023-02-13T07:14:50.555Z,37.90
2023-02-13T07:17:58.498Z,37.70
2023-02-13T07:21:08.168Z,37.70
2023-02-13T07:24:16.094Z,37.70
2023-02-13T07:27:23.796Z,37.70
2023-02-13T07:30:32.290Z,37.70
2023-02-13T07:33:40.089Z,37.80
2023-02-13T07:36:49.515Z,37.70
2023-02-13T07:39:57.516Z,37.70
2023-02-13T07:43:05.522Z,37.70
2023-02-13T07:46:13.604Z,37.70
2023-02-13T07:49:21.614Z,37.70
2023-02-13T07:52:30.963Z,37.70
2023-02-13T07:55:39.371Z,37.70
2023-02-13T07:58:47.332Z,37.70
2023-02-13T08:01:55.429Z,37.70
2023-02-13T08:05:03.762Z,37.70
2023-02-13T08:08:13.306Z,37.70
2023-02-13T08:11:42.531Z,37.70
2023-02-13T08:14:50.206Z,37.70
2023-02-13T08:17:58.154Z,37.70
2023-02-13T08:21:06.216Z,37.70
2023-02-13T08:24:15.287Z,37.70
2023-02-13T08:27:24.196Z,37.70
2023-02-13T08:30:32.360Z,37.70
2023-02-13T08:33:41.407Z,38.40
2023-02-13T08:36:49.443Z,37.70
2023-02-13T08:39:58.910Z,38.40
2023-02-13T08:43:08.448Z,37.70
2023-02-13T08:46:16.751Z,37.80
2023-02-13T08:49:24.857Z,37.80
2023-02-13T08:52:33.015Z,37.80
2023-02-13T08:55:42.364Z,37.80
2023-02-13T08:58:50.762Z,37.80
2023-02-13T09:01:58.856Z,37.70
2023-02-13T09:05:07.125Z,37.70
2023-02-13T09:08:16.629Z,37.70
2023-02-13T09:11:27.304Z,37.70
2023-02-13T09:14:35.220Z,37.80
2023-02-13T09:17:43.573Z,37.70
2023-02-13T09:20:51.631Z,37.70
2023-02-13T09:23:59.745Z,37.70
2023-02-13T09:27:09.481Z,37.60
2023-02-13T09:30:23.295Z,37.70
2023-02-13T09:33:31.449Z,37.60
2023-02-13T09:36:39.526Z,37.60
2023-02-13T09:39:47.662Z,37.70
2023-02-13T09:42:58.604Z,38.40
2023-02-13T09:46:09.453Z,37.70
2023-02-13T09:49:17.934Z,37.70
2023-02-13T09:52:26.315Z,37.70
2023-02-13T09:55:37.543Z,37.70
2023-02-13T09:58:48.502Z,37.70
2023-02-13T10:01:56.534Z,37.70
2023-02-13T10:05:09.820Z,37.70
2023-02-13T10:08:24.841Z,37.70
2023-02-13T10:11:41.811Z,37.70
2023-02-13T10:14:55.839Z,37.70
2023-02-13T10:18:05.741Z,37.60
2023-02-13T10:21:13.878Z,37.60
2023-02-13T10:24:27.323Z,37.60
2023-02-13T10:27:36.516Z,37.50
2023-02-13T10:30:50.349Z,37.60
2023-02-13T10:34:00.080Z,37.50
2023-02-13T10:37:13.828Z,38.40
2023-02-13T10:40:21.754Z,38.50
2023-02-13T10:43:30.237Z,38.20
2023-02-13T10:46:44.123Z,38.10
2023-02-13T10:50:05.164Z,38.00
2023-02-13T10:53:15.662Z,38.30
2023-02-13T10:56:28.447Z,38.20
2023-02-13T11:00:01.233Z,38.00
2023-02-13T11:03:16.889Z,37.90
2023-02-13T11:06:24.783Z,37.90
2023-02-13T11:09:35.040Z,37.90
2023-02-13T11:12:43.013Z,37.80
2023-02-13T11:16:02.779Z,37.80
2023-02-13T11:19:21.081Z,37.70
2023-02-13T11:22:32.357Z,37.70
2023-02-13T11:25:40.260Z,37.70
2023-02-13T11:28:50.731Z,37.60
2023-02-13T11:32:23.228Z,37.70
2023-02-13T11:35:33.279Z,37.60
2023-02-13T11:38:41.485Z,37.60
2023-02-13T11:41:50.771Z,37.60
2023-02-13T11:45:00.746Z,37.60
2023-02-13T11:48:10.141Z,37.60
2023-02-13T11:51:19.803Z,37.50
2023-02-13T11:54:31.427Z,37.50
2023-02-13T11:57:39.515Z,37.60
2023-02-13T12:00:47.931Z,37.50
2023-02-13T12:04:03.464Z,37.50
2023-02-13T12:07:18.028Z,37.50
2023-02-13T12:10:27.462Z,37.50
2023-02-13T12:13:37.169Z,37.50
2023-02-13T12:16:47.319Z,37.50
2023-02-13T12:19:55.643Z,37.50
2023-02-13T12:23:06.860Z,37.50
2023-02-13T12:26:23.967Z,38.10
2023-02-13T12:29:43.699Z,37.50
2023-02-13T12:32:55.528Z,37.50
2023-02-13T12:36:05.798Z,37.50
2023-02-13T12:39:19.954Z,37.50
2023-02-13T12:42:34.754Z,37.50
2023-02-13T12:45:43.325Z,37.50
2023-02-13T12:48:53.954Z,37.50
2023-02-13T12:52:09.407Z,37.50
2023-02-13T12:55:30.104Z,37.50
2023-02-13T12:58:46.929Z,37.50
2023-02-13T13:02:28.309Z,37.50
2023-02-13T13:05:58.709Z,37.50
2023-02-13T13:09:23.016Z,37.50
2023-02-13T13:12:41.341Z,37.40
2023-02-13T13:15:55.621Z,37.50
2023-02-13T13:19:08.290Z,37.50
2023-02-13T13:22:18.336Z,37.50
2023-02-13T13:25:27.511Z,37.50
2023-02-13T13:28:38.946Z,37.50
2023-02-13T13:31:47.456Z,37.50
2023-02-13T13:34:55.725Z,37.50
2023-02-13T13:38:06.606Z,37.50
2023-02-13T13:41:17.090Z,37.50
2023-02-13T13:44:40.220Z,37.50
2023-02-13T13:48:01.422Z,37.50
2023-02-13T13:51:17.691Z,37.60
2023-02-13T13:54:34.698Z,37.70
2023-02-13T13:58:00.204Z,37.90
2023-02-13T14:01:24.044Z,37.90
2023-02-13T14:04:43.489Z,37.90
2023-02-13T14:07:52.516Z,38.00
2023-02-13T14:11:02.440Z,38.00
2023-02-13T14:14:52.474Z,37.90
2023-02-13T14:18:01.941Z,37.90
2023-02-13T14:21:10.069Z,38.00
2023-02-13T14:24:18.630Z,38.00
2023-02-13T14:27:27.331Z,38.00
2023-02-13T14:30:36.751Z,38.00
2023-02-13T14:33:46.024Z,38.10
2023-02-13T14:37:07.747Z,38.00
2023-02-13T14:40:34.547Z,38.10
2023-02-13T14:43:49.136Z,38.10
2023-02-13T14:46:57.159Z,38.10
2023-02-13T14:50:08.051Z,38.10
2023-02-13T14:53:22.801Z,38.10
2023-02-13T14:56:31.580Z,38.10
2023-02-13T14:59:41.075Z,38.20
2023-02-13T15:02:50.966Z,38.30
2023-02-13T15:06:01.723Z,38.50
2023-02-13T15:09:20.126Z,38.50
2023-02-13T15:12:31.897Z,38.50
2023-02-13T15:15:40.068Z,38.50
2023-02-13T15:18:49.690Z,38.50
2023-02-13T15:22:00.337Z,38.40
2023-02-13T15:25:09.274Z,38.30
2023-02-13T15:28:20.776Z,38.30
2023-02-13T15:31:33.110Z,38.30
2023-02-13T15:34:41.336Z,38.20
2023-02-13T15:37:50.864Z,38.20
2023-02-13T15:41:00.466Z,38.20
2023-02-13T15:44:08.468Z,38.10
2023-02-13T15:47:18.607Z,38.10
2023-02-13T15:50:29.984Z,38.10
2023-02-13T15:53:39.154Z,38.10
2023-02-13T15:56:47.004Z,38.10
2023-02-13T15:59:55.636Z,38.00
2023-02-13T16:03:04.718Z,38.10
2023-02-13T16:06:14.616Z,38.10
2023-02-13T16:09:27.130Z,38.60
2023-02-13T16:12:35.483Z,38.90
2023-02-13T16:15:43.719Z,39.00
2023-02-13T16:18:51.848Z,39.00
2023-02-13T16:22:01.314Z,38.80
2023-02-13T16:25:19.986Z,38.80
2023-02-13T16:28:28.257Z,38.90
2023-02-13T16:31:36.299Z,39.10
2023-02-13T16:34:44.214Z,39.60
2023-02-13T16:37:53.542Z,40.20
2023-02-13T16:41:03.651Z,41.00
2023-02-13T16:44:23.226Z,41.50
2023-02-13T16:47:31.132Z,42.20
2023-02-13T16:50:38.984Z,42.10
2023-02-13T16:53:47.148Z,42.10
2023-02-13T16:56:57.808Z,41.90
2023-02-13T17:00:08.549Z,41.70
2023-02-13T17:03:16.752Z,41.50
2023-02-13T17:06:25.772Z,41.40
2023-02-13T17:09:33.992Z,41.20
2023-02-13T17:12:43.438Z,41.20
2023-02-13T17:15:52.112Z,40.90
2023-02-13T17:18:59.988Z,41.00
2023-02-13T17:22:08.049Z,41.10
2023-02-13T17:25:20.765Z,41.70
2023-02-13T17:28:30.930Z,41.00
2023-02-13T17:31:38.815Z,40.80
2023-02-13T17:34:47.303Z,40.70
2023-02-13T17:37:55.421Z,40.70
2023-02-13T17:41:03.578Z,40.50
2023-02-13T17:44:14.596Z,40.50
2023-02-13T17:47:22.298Z,40.40
2023-02-13T17:50:31.174Z,40.40
2023-02-13T17:53:39.496Z,40.30
2023-02-13T17:56:47.099Z,40.30
2023-02-13T17:59:56.882Z,40.20
2023-02-13T18:03:04.790Z,40.20
2023-02-13T18:06:13.044Z,40.10
2023-02-13T18:09:21.359Z,40.10
2023-02-13T18:12:29.074Z,40.10
2023-02-13T18:15:41.175Z,40.00
2023-02-13T18:18:49.424Z,40.00
2023-02-13T18:21:57.518Z,39.90
2023-02-13T18:25:05.859Z,39.90
2023-02-13T18:28:14.133Z,40.00
2023-02-13T18:31:23.745Z,40.10
2023-02-13T18:34:31.951Z,40.00
2023-02-13T18:37:40.045Z,40.00
2023-02-13T18:40:47.857Z,40.10
2023-02-13T18:43:57.357Z,40.30
2023-02-13T18:47:06.683Z,40.40
2023-02-13T18:50:14.655Z,40.50
2023-02-13T18:53:22.690Z,40.60
2023-02-13T18:56:30.509Z,40.60
2023-02-13T18:59:38.470Z,40.50
2023-02-13T19:02:47.755Z,40.40
2023-02-13T19:05:57.198Z,40.40
2023-02-13T19:09:05.508Z,40.30
2023-02-13T19:12:13.504Z,40.20
2023-02-13T19:15:21.452Z,40.30
2023-02-13T19:18:30.818Z,40.90
2023-02-13T19:21:39.094Z,40.70
2023-02-13T19:24:47.327Z,40.50
2023-02-13T19:27:55.517Z,40.70
2023-02-13T19:31:05.906Z,41.10
2023-02-13T19:34:16.515Z,40.90
2023-02-13T19:37:26.738Z,41.30
2023-02-13T19:40:36.476Z,41.30
2023-02-13T19:43:49.944Z,41.20
2023-02-13T19:46:57.864Z,41.10
2023-02-13T19:50:08.528Z,41.10
2023-02-13T19:53:17.159Z,41.10
2023-02-13T19:56:26.312Z,41.10
2023-02-13T19:59:35.320Z,41.10
2023-02-13T20:02:43.593Z,41.10
2023-02-13T20:05:52.831Z,41.10
2023-02-13T20:09:01.657Z,41.10
2023-02-13T20:12:09.898Z,41.10
2023-02-13T20:15:17.815Z,41.00
2023-02-13T20:18:25.950Z,41.00
2023-02-13T20:21:35.546Z,40.80
2023-02-13T20:24:43.978Z,40.70
2023-02-13T20:27:51.755Z,40.70
2023-02-13T20:31:00.706Z,40.60
2023-02-13T20:34:09.404Z,40.60
2023-02-13T20:37:19.042Z,40.50
2023-02-13T20:40:26.993Z,40.50
2023-02-13T20:43:34.845Z,40.40
2023-02-13T20:46:42.996Z,40.40
2023-02-13T20:49:51.242Z,40.50
2023-02-13T20:53:00.687Z,40.40
2023-02-13T20:56:10.568Z,40.40
2023-02-13T20:59:18.678Z,40.30
2023-02-13T21:02:26.699Z,40.30
2023-02-13T21:05:34.606Z,40.30
2023-02-13T21:08:44.840Z,40.30
2023-02-13T21:11:52.864Z,40.20
2023-02-13T21:15:00.884Z,40.20
2023-02-13T21:18:09.480Z,40.20
2023-02-13T21:21:17.496Z,40.20
2023-02-13T21:24:26.548Z,40.20
2023-02-13T21:27:35.211Z,40.10
2023-02-13T21:30:44.064Z,40.10
2023-02-13T21:33:51.931Z,40.10
2023-02-13T21:36:59.700Z,40.00
2023-02-13T21:40:10.445Z,40.00
2023-02-13T21:43:18.408Z,40.00
2023-02-13T21:46:27.450Z,40.00
2023-02-13T21:49:36.380Z,40.00
2023-02-13T21:52:44.266Z,39.90
2023-02-13T21:55:53.852Z,39.90
2023-02-13T21:59:01.861Z,40.00
2023-02-13T22:02:26.848Z,39.90
2023-02-13T22:05:35.142Z,39.80
2023-02-13T22:08:43.476Z,39.80
2023-02-13T22:11:53.899Z,39.70
2023-02-13T22:15:01.864Z,39.70
2023-02-13T22:18:10.280Z,40.30
2023-02-13T22:21:22.194Z,39.60
2023-02-13T22:24:30.266Z,39.60
2023-02-13T22:27:39.586Z,39.50
2023-02-13T22:30:47.639Z,39.50
2023-02-13T22:34:03.340Z,39.50
2023-02-13T22:37:12.598Z,39.50
2023-02-13T22:40:20.526Z,39.40
2023-02-13T22:43:29.965Z,39.40
2023-02-13T22:46:38.028Z,39.30
2023-02-13T22:49:45.884Z,39.30
2023-02-13T22:52:53.844Z,39.90
2023-02-13T22:56:02.273Z,39.30
2023-02-13T22:59:11.540Z,39.30
2023-02-13T23:02:19.331Z,39.30
2023-02-13T23:05:27.475Z,39.20
2023-02-13T23:08:35.296Z,39.20
2023-02-13T23:12:00.296Z,39.10
2023-02-13T23:15:10.712Z,39.10
2023-02-13T23:18:18.532Z,39.10
2023-02-13T23:21:26.644Z,39.10
2023-02-13T23:24:34.797Z,39.10
2023-02-13T23:27:43.326Z,39.10
2023-02-13T23:30:52.889Z,39.10
2023-02-13T23:34:00.883Z,39.00
2023-02-13T23:37:08.863Z,39.10
2023-02-13T23:40:17.404Z,39.00
2023-02-13T23:43:25.399Z,39.00
2023-02-13T23:46:34.839Z,39.00
2023-02-13T23:49:42.729Z,39.00
2023-02-13T23:52:50.710Z,39.00
2023-02-13T23:55:58.530Z,38.90
2023-02-13T23:59:06.729Z,38.90
